sensor_id;sensor_type;location;lat;lon;timestamp;pressure;altitude;pressure_sealevel;temperature;humidity
19590;BME280;12231;42.782;23.388;2022-12-07T00:01:07;95637.19;;;6.35;100.00
19590;BME280;12231;42.782;23.388;2022-12-07T00:03:33;95631.19;;;6.36;100.00
19590;BME280;12231;42.782;23.388;2022-12-07T00:05:59;95618.84;;;6.05;100.00
19590;BME280;12231;42.782;23.388;2022-12-07T00:08:26;95613.56;;;6.10;100.00
19590;BME280;12231;42.782;23.388;2022-12-07T00:10:51;95614.38;;;6.10;100.00
19590;BME280;12231;42.782;23.388;2022-12-07T00:13:16;95621.69;;;6.19;100.00
19590;BME280;12231;42.782;23.388;2022-12-07T00:15:42;95617.06;;;6.27;100.00
19590;BME280;12231;42.782;23.388;2022-12-07T00:18:07;95615.84;;;6.36;100.00
19590;BME280;12231;42.782;23.388;2022-12-07T00:20:33;95622.69;;;6.35;100.00
19590;BME280;12231;42.782;23.388;2022-12-07T00:22:59;95626.97;;;6.35;100.00
19590;BME280;12231;42.782;23.388;2022-12-07T00:25:24;95624.84;;;6.44;100.00
19590;BME280;12231;42.782;23.388;2022-12-07T00:27:50;95621.97;;;6.52;100.00
19590;BME280;12231;42.782;23.388;2022-12-07T00:30:16;95619.19;;;6.56;100.00
19590;BME280;12231;42.782;23.388;2022-12-07T00:32:42;95619.97;;;6.58;100.00
19590;BME280;12231;42.782;23.388;2022-12-07T00:35:07;95623.97;;;6.64;100.00
19590;BME280;12231;42.782;23.388;2022-12-07T00:37:33;95632.50;;;6.64;100.00
19590;BME280;12231;42.782;23.388;2022-12-07T00:39:58;95634.13;;;6.65;100.00
19590;BME280;12231;42.782;23.388;2022-12-07T00:42:24;95637.53;;;6.66;100.00
19590;BME280;12231;42.782;23.388;2022-12-07T00:44:49;95633.25;;;6.66;100.00
19590;BME280;12231;42.782;23.388;2022-12-07T00:47:14;95628.84;;;6.70;100.00
19590;BME280;12231;42.782;23.388;2022-12-07T00:49:40;95628.84;;;6.70;100.00
19590;BME280;12231;42.782;23.388;2022-12-07T00:52:05;95619.63;;;6.66;100.00
19590;BME280;12231;42.782;23.388;2022-12-07T00:54:30;95615.47;;;6.63;100.00
19590;BME280;12231;42.782;23.388;2022-12-07T00:56:56;95619.75;;;6.63;100.00
19590;BME280;12231;42.782;23.388;2022-12-07T00:59:21;95618.22;;;6.59;100.00
19590;BME280;12231;42.782;23.388;2022-12-07T01:01:47;95609.91;;;6.54;100.00
19590;BME280;12231;42.782;23.388;2022-12-07T01:04:12;95617.50;;;6.55;100.00
19590;BME280;12231;42.782;23.388;2022-12-07T01:06:38;95612.34;;;6.57;100.00
19590;BME280;12231;42.782;23.388;2022-12-07T01:09:03;95607.03;;;6.61;100.00
19590;BME280;12231;42.782;23.388;2022-12-07T01:11:30;95609.03;;;6.55;100.00
19590;BME280;12231;42.782;23.388;2022-12-07T01:13:58;95620.78;;;6.59;100.00
19590;BME280;12231;42.782;23.388;2022-12-07T01:16:27;95613.38;;;6.53;100.00
19590;BME280;12231;42.782;23.388;2022-12-07T01:18:55;95613.44;;;6.51;100.00
19590;BME280;12231;42.782;23.388;2022-12-07T01:21:23;95605.91;;;6.48;100.00
19590;BME280;12231;42.782;23.388;2022-12-07T01:23:49;95604.16;;;6.49;100.00
19590;BME280;12231;42.782;23.388;2022-12-07T01:26:18;95606.91;;;6.26;100.00
19590;BME280;12231;42.782;23.388;2022-12-07T01:28:44;95602.72;;;6.43;100.00
19590;BME280;12231;42.782;23.388;2022-12-07T01:31:12;95600.72;;;6.50;100.00
19590;BME280;12231;42.782;23.388;2022-12-07T01:33:41;95587.91;;;6.50;100.00
19590;BME280;12231;42.782;23.388;2022-12-07T01:38:46;95594.53;;;6.54;100.00
19590;BME280;12231;42.782;23.388;2022-12-07T01:41:13;95593.03;;;6.50;100.00
19590;BME280;12231;42.782;23.388;2022-12-07T01:46:33;95593.81;;;6.52;100.00
19590;BME280;12231;42.782;23.388;2022-12-07T01:48:59;95596.38;;;6.52;100.00
19590;BME280;12231;42.782;23.388;2022-12-07T01:51:26;95599.81;;;6.51;100.00
19590;BME280;12231;42.782;23.388;2022-12-07T01:53:52;95587.91;;;6.50;100.00
19590;BME280;12231;42.782;23.388;2022-12-07T01:56:20;95585.63;;;6.44;100.00
19590;BME280;12231;42.782;23.388;2022-12-07T01:58:49;95588.25;;;6.42;100.00
19590;BME280;12231;42.782;23.388;2022-12-07T02:01:15;95579.09;;;6.37;100.00
19590;BME280;12231;42.782;23.388;2022-12-07T02:03:42;95576.75;;;6.32;100.00
19590;BME280;12231;42.782;23.388;2022-12-07T02:06:10;95577.47;;;6.36;100.00
19590;BME280;12231;42.782;23.388;2022-12-07T02:08:36;95579.03;;;6.38;100.00
19590;BME280;12231;42.782;23.388;2022-12-07T02:11:03;95577.97;;;6.24;100.00
19590;BME280;12231;42.782;23.388;2022-12-07T02:13:35;95574.72;;;6.20;100.00
19590;BME280;12231;42.782;23.388;2022-12-07T02:18:48;95567.75;;;6.24;100.00
19590;BME280;12231;42.782;23.388;2022-12-07T02:24:15;95575.28;;;6.07;100.00
19590;BME280;12231;42.782;23.388;2022-12-07T02:30:10;95575.28;;;6.07;100.00
19590;BME280;12231;42.782;23.388;2022-12-07T02:32:52;95576.97;;;6.08;100.00
19590;BME280;12231;42.782;23.388;2022-12-07T02:35:43;95570.94;;;6.09;100.00
19590;BME280;12231;42.782;23.388;2022-12-07T02:38:39;95571.16;;;6.04;100.00
19590;BME280;12231;42.782;23.388;2022-12-07T02:41:30;95558.22;;;6.07;100.00
19590;BME280;12231;42.782;23.388;2022-12-07T02:44:01;95567.75;;;6.04;100.00
19590;BME280;12231;42.782;23.388;2022-12-07T02:46:30;95561.94;;;6.00;100.00
19590;BME280;12231;42.782;23.388;2022-12-07T02:48:58;95563.88;;;5.95;100.00
19590;BME280;12231;42.782;23.388;2022-12-07T02:51:30;95570.72;;;5.95;100.00
19590;BME280;12231;42.782;23.388;2022-12-07T02:53:56;95568.03;;;5.98;100.00
19590;BME280;12231;42.782;23.388;2022-12-07T02:56:33;95570.34;;;5.84;100.00
19590;BME280;12231;42.782;23.388;2022-12-07T03:00:04;95567.44;;;5.91;100.00
19590;BME280;12231;42.782;23.388;2022-12-07T03:04:55;95566.59;;;5.71;100.00
19590;BME280;12231;42.782;23.388;2022-12-07T03:13:00;95560.56;;;5.72;100.00
19590;BME280;12231;42.782;23.388;2022-12-07T03:17:54;95536.91;;;5.67;100.00
19590;BME280;12231;42.782;23.388;2022-12-07T03:20:23;95536.00;;;5.68;100.00
19590;BME280;12231;42.782;23.388;2022-12-07T03:22:51;95541.91;;;5.70;100.00
19590;BME280;12231;42.782;23.388;2022-12-07T03:25:18;95541.13;;;5.68;100.00
19590;BME280;12231;42.782;23.388;2022-12-07T03:27:57;95539.47;;;5.67;100.00
19590;BME280;12231;42.782;23.388;2022-12-07T03:30:32;95545.38;;;5.69;100.00
19590;BME280;12231;42.782;23.388;2022-12-07T03:33:04;95547.16;;;5.67;100.00
19590;BME280;12231;42.782;23.388;2022-12-07T03:35:40;95544.53;;;5.68;100.00
19590;BME280;12231;42.782;23.388;2022-12-07T03:38:17;95542.63;;;5.73;100.00
19590;BME280;12231;42.782;23.388;2022-12-07T03:40:49;95545.94;;;5.75;100.00
19590;BME280;12231;42.782;23.388;2022-12-07T03:43:18;95550.22;;;5.75;100.00
19590;BME280;12231;42.782;23.388;2022-12-07T03:45:55;95548.44;;;5.77;100.00
19590;BME280;12231;42.782;23.388;2022-12-07T03:48:33;95552.94;;;5.92;100.00
19590;BME280;12231;42.782;23.388;2022-12-07T03:53:56;95555.88;;;5.83;100.00
19590;BME280;12231;42.782;23.388;2022-12-07T03:56:25;95559.88;;;5.68;100.00
19590;BME280;12231;42.782;23.388;2022-12-07T03:58:53;95550.63;;;5.66;100.00
19590;BME280;12231;42.782;23.388;2022-12-07T04:01:19;95547.41;;;5.60;100.00
19590;BME280;12231;42.782;23.388;2022-12-07T04:03:44;95544.84;;;5.60;100.00
19590;BME280;12231;42.782;23.388;2022-12-07T04:06:10;95548.63;;;5.52;100.00
19590;BME280;12231;42.782;23.388;2022-12-07T04:08:35;95548.69;;;5.50;100.00
19590;BME280;12231;42.782;23.388;2022-12-07T04:11:01;95541.13;;;5.47;100.00
19590;BME280;12231;42.782;23.388;2022-12-07T04:13:27;95546.44;;;5.43;100.00
19590;BME280;12231;42.782;23.388;2022-12-07T04:15:52;95540.97;;;5.30;100.00
19590;BME280;12231;42.782;23.388;2022-12-07T04:18:17;95534.16;;;5.31;100.00
19590;BME280;12231;42.782;23.388;2022-12-07T04:20:43;95532.78;;;5.22;100.00
19590;BME280;12231;42.782;23.388;2022-12-07T04:23:08;95537.78;;;5.25;100.00
19590;BME280;12231;42.782;23.388;2022-12-07T04:25:34;95530.00;;;5.28;100.00
19590;BME280;12231;42.782;23.388;2022-12-07T04:27:59;95533.38;;;5.29;100.00
19590;BME280;12231;42.782;23.388;2022-12-07T04:30:25;95530.75;;;5.30;100.00
19590;BME280;12231;42.782;23.388;2022-12-07T04:32:50;95530.75;;;5.30;100.00
19590;BME280;12231;42.782;23.388;2022-12-07T04:35:15;95531.59;;;5.31;100.00
19590;BME280;12231;42.782;23.388;2022-12-07T04:37:41;95533.19;;;5.33;100.00
19590;BME280;12231;42.782;23.388;2022-12-07T04:40:08;95532.50;;;5.30;100.00
19590;BME280;12231;42.782;23.388;2022-12-07T04:42:36;95541.88;;;5.29;100.00
19590;BME280;12231;42.782;23.388;2022-12-07T04:45:01;95540.31;;;5.25;100.00
19590;BME280;12231;42.782;23.388;2022-12-07T04:47:27;95549.03;;;5.21;100.00
19590;BME280;12231;42.782;23.388;2022-12-07T04:49:52;95539.69;;;5.20;100.00
19590;BME280;12231;42.782;23.388;2022-12-07T04:52:18;95545.75;;;5.18;100.00
19590;BME280;12231;42.782;23.388;2022-12-07T04:54:43;95544.97;;;5.16;100.00
19590;BME280;12231;42.782;23.388;2022-12-07T04:57:08;95544.91;;;5.17;100.00
19590;BME280;12231;42.782;23.388;2022-12-07T04:59:34;95552.69;;;5.14;100.00
19590;BME280;12231;42.782;23.388;2022-12-07T05:01:59;95543.50;;;5.10;100.00
19590;BME280;12231;42.782;23.388;2022-12-07T05:04:24;95539.53;;;5.03;100.00
19590;BME280;12231;42.782;23.388;2022-12-07T05:06:50;95553.19;;;5.02;100.00
19590;BME280;12231;42.782;23.388;2022-12-07T05:09:15;95548.97;;;5.01;100.00
19590;BME280;12231;42.782;23.388;2022-12-07T05:11:41;95549.09;;;4.98;100.00
19590;BME280;12231;42.782;23.388;2022-12-07T05:14:18;95540.50;;;5.01;100.00
19590;BME280;12231;42.782;23.388;2022-12-07T05:16:45;95544.28;;;4.91;100.00
19590;BME280;12231;42.782;23.388;2022-12-07T05:19:11;95547.66;;;4.91;100.00
19590;BME280;12231;42.782;23.388;2022-12-07T05:21:37;95544.41;;;4.88;100.00
19590;BME280;12231;42.782;23.388;2022-12-07T05:24:03;95545.47;;;4.82;100.00
19590;BME280;12231;42.782;23.388;2022-12-07T05:26:29;95542.19;;;4.79;100.00
19590;BME280;12231;42.782;23.388;2022-12-07T05:28:55;95542.91;;;4.82;100.00
19590;BME280;12231;42.782;23.388;2022-12-07T05:31:23;95550.69;;;4.79;100.00
19590;BME280;12231;42.782;23.388;2022-12-07T05:33:48;95549.84;;;4.79;100.00
19590;BME280;12231;42.782;23.388;2022-12-07T05:36:13;95552.69;;;4.71;100.00
19590;BME280;12231;42.782;23.388;2022-12-07T05:38:39;95549.75;;;4.59;100.00
19590;BME280;12231;42.782;23.388;2022-12-07T05:41:07;95550.72;;;4.56;100.00
19590;BME280;12231;42.782;23.388;2022-12-07T05:43:33;95563.41;;;4.58;100.00
19590;BME280;12231;42.782;23.388;2022-12-07T05:45:58;95556.66;;;4.57;100.00
19590;BME280;12231;42.782;23.388;2022-12-07T05:48:24;95546.22;;;4.63;100.00
19590;BME280;12231;42.782;23.388;2022-12-07T05:50:51;95551.25;;;4.64;100.00
19590;BME280;12231;42.782;23.388;2022-12-07T05:53:16;95546.03;;;4.67;100.00
19590;BME280;12231;42.782;23.388;2022-12-07T05:55:42;95543.47;;;4.67;100.00
19590;BME280;12231;42.782;23.388;2022-12-07T05:58:08;95542.50;;;4.71;100.00
19590;BME280;12231;42.782;23.388;2022-12-07T06:00:56;95540.06;;;4.68;100.00
19590;BME280;12231;42.782;23.388;2022-12-07T06:03:22;95543.25;;;4.73;100.00
19590;BME280;12231;42.782;23.388;2022-12-07T06:05:47;95541.53;;;4.74;100.00
19590;BME280;12231;42.782;23.388;2022-12-07T06:08:13;95540.69;;;4.73;100.00
19590;BME280;12231;42.782;23.388;2022-12-07T06:10:40;95540.16;;;4.65;100.00
19590;BME280;12231;42.782;23.388;2022-12-07T06:13:05;95532.50;;;4.65;100.00
19590;BME280;12231;42.782;23.388;2022-12-07T06:15:30;95538.38;;;4.67;100.00
19590;BME280;12231;42.782;23.388;2022-12-07T06:17:56;95532.47;;;4.67;100.00
19590;BME280;12231;42.782;23.388;2022-12-07T06:20:21;95535.38;;;4.79;100.00
19590;BME280;12231;42.782;23.388;2022-12-07T06:22:46;95528.72;;;4.97;100.00
19590;BME280;12231;42.782;23.388;2022-12-07T06:25:12;95532.38;;;5.11;100.00
19590;BME280;12231;42.782;23.388;2022-12-07T06:27:37;95534.56;;;5.20;100.00
19590;BME280;12231;42.782;23.388;2022-12-07T06:30:03;95537.47;;;5.33;100.00
19590;BME280;12231;42.782;23.388;2022-12-07T06:32:33;95539.28;;;5.51;100.00
19590;BME280;12231;42.782;23.388;2022-12-07T06:34:59;95545.22;;;5.72;100.00
19590;BME280;12231;42.782;23.388;2022-12-07T06:37:24;95542.66;;;5.93;100.00
19590;BME280;12231;42.782;23.388;2022-12-07T06:39:50;95545.72;;;6.01;100.00
19590;BME280;12231;42.782;23.388;2022-12-07T06:42:15;95554.94;;;5.85;100.00
19590;BME280;12231;42.782;23.388;2022-12-07T06:44:40;95560.06;;;6.04;100.00
19590;BME280;12231;42.782;23.388;2022-12-07T06:47:06;95552.72;;;6.16;100.00
19590;BME280;12231;42.782;23.388;2022-12-07T06:49:33;95555.66;;;6.27;100.00
19590;BME280;12231;42.782;23.388;2022-12-07T06:51:58;95554.31;;;6.19;100.00
19590;BME280;12231;42.782;23.388;2022-12-07T06:54:23;95554.53;;;6.33;100.00
19590;BME280;12231;42.782;23.388;2022-12-07T06:56:49;95561.19;;;6.37;100.00
19590;BME280;12231;42.782;23.388;2022-12-07T06:59:14;95571.84;;;6.46;100.00
19590;BME280;12231;42.782;23.388;2022-12-07T07:01:39;95562.25;;;6.51;100.00
19590;BME280;12231;42.782;23.388;2022-12-07T07:04:05;95566.38;;;6.54;100.00
19590;BME280;12231;42.782;23.388;2022-12-07T07:06:31;95565.00;;;6.84;100.00
19590;BME280;12231;42.782;23.388;2022-12-07T07:08:56;95563.03;;;7.08;100.00
19590;BME280;12231;42.782;23.388;2022-12-07T07:11:22;95566.41;;;7.27;100.00
19590;BME280;12231;42.782;23.388;2022-12-07T07:13:47;95566.81;;;7.36;100.00
19590;BME280;12231;42.782;23.388;2022-12-07T07:16:13;95570.53;;;7.48;100.00
19590;BME280;12231;42.782;23.388;2022-12-07T07:18:38;95570.06;;;7.57;100.00
19590;BME280;12231;42.782;23.388;2022-12-07T07:21:04;95564.88;;;7.75;100.00
19590;BME280;12231;42.782;23.388;2022-12-07T07:23:29;95571.75;;;7.92;100.00
19590;BME280;12231;42.782;23.388;2022-12-07T07:25:55;95577.25;;;8.01;100.00
19590;BME280;12231;42.782;23.388;2022-12-07T07:28:20;95572.47;;;8.28;100.00
19590;BME280;12231;42.782;23.388;2022-12-07T07:30:46;95574.50;;;8.39;100.00
19590;BME280;12231;42.782;23.388;2022-12-07T07:33:12;95573.13;;;8.49;100.00
19590;BME280;12231;42.782;23.388;2022-12-07T07:35:38;95576.31;;;8.69;100.00
19590;BME280;12231;42.782;23.388;2022-12-07T07:38:04;95583.78;;;8.74;100.00
19590;BME280;12231;42.782;23.388;2022-12-07T07:40:30;95574.84;;;8.81;100.00
19590;BME280;12231;42.782;23.388;2022-12-07T07:42:56;95574.66;;;8.68;100.00
19590;BME280;12231;42.782;23.388;2022-12-07T07:45:24;95577.50;;;8.79;100.00
19590;BME280;12231;42.782;23.388;2022-12-07T07:47:50;95574.16;;;8.77;100.00
19590;BME280;12231;42.782;23.388;2022-12-07T07:50:17;95577.31;;;8.98;100.00
19590;BME280;12231;42.782;23.388;2022-12-07T07:52:42;95579.09;;;9.28;100.00
19590;BME280;12231;42.782;23.388;2022-12-07T07:55:08;95578.91;;;10.06;100.00
19590;BME280;12231;42.782;23.388;2022-12-07T07:57:35;95577.50;;;11.00;98.11
19590;BME280;12231;42.782;23.388;2022-12-07T08:00:03;95574.19;;;11.92;94.23
19590;BME280;12231;42.782;23.388;2022-12-07T08:02:28;95588.94;;;12.42;87.60
19590;BME280;12231;42.782;23.388;2022-12-07T08:04:54;95586.47;;;12.40;85.47
19590;BME280;12231;42.782;23.388;2022-12-07T08:07:20;95591.47;;;11.25;89.33
19590;BME280;12231;42.782;23.388;2022-12-07T08:09:45;95590.81;;;11.21;90.39
19590;BME280;12231;42.782;23.388;2022-12-07T08:12:11;95588.75;;;10.71;91.55
19590;BME280;12231;42.782;23.388;2022-12-07T08:14:36;95581.13;;;11.25;97.47
19590;BME280;12231;42.782;23.388;2022-12-07T08:17:01;95578.91;;;11.86;97.31
19590;BME280;12231;42.782;23.388;2022-12-07T08:19:27;95573.81;;;12.23;93.42
19590;BME280;12231;42.782;23.388;2022-12-07T08:21:52;95584.78;;;10.94;90.67
19590;BME280;12231;42.782;23.388;2022-12-07T08:24:18;95587.09;;;10.84;91.88
19590;BME280;12231;42.782;23.388;2022-12-07T08:26:43;95590.66;;;10.26;93.68
19590;BME280;12231;42.782;23.388;2022-12-07T08:29:09;95586.34;;;9.51;97.51
19590;BME280;12231;42.782;23.388;2022-12-07T08:31:34;95589.81;;;9.96;96.83
19590;BME280;12231;42.782;23.388;2022-12-07T08:34:00;95575.28;;;11.08;99.16
19590;BME280;12231;42.782;23.388;2022-12-07T08:36:26;95568.22;;;12.04;96.49
19590;BME280;12231;42.782;23.388;2022-12-07T08:38:51;95572.56;;;13.04;92.95
19590;BME280;12231;42.782;23.388;2022-12-07T08:41:17;95576.59;;;13.68;89.64
19590;BME280;12231;42.782;23.388;2022-12-07T08:43:43;95570.16;;;14.32;84.67
19590;BME280;12231;42.782;23.388;2022-12-07T08:46:23;95569.75;;;14.93;82.30
19590;BME280;12231;42.782;23.388;2022-12-07T08:48:54;95558.91;;;15.10;77.41
19590;BME280;12231;42.782;23.388;2022-12-07T08:51:21;95543.75;;;15.48;75.85
19590;BME280;12231;42.782;23.388;2022-12-07T08:53:48;95543.28;;;15.54;73.96
19590;BME280;12231;42.782;23.388;2022-12-07T08:56:14;95531.75;;;15.14;73.02
19590;BME280;12231;42.782;23.388;2022-12-07T08:58:40;95540.63;;;13.76;77.33
19590;BME280;12231;42.782;23.388;2022-12-07T09:01:05;95542.31;;;13.64;80.19
19590;BME280;12231;42.782;23.388;2022-12-07T09:03:31;95540.66;;;13.16;80.13
19590;BME280;12231;42.782;23.388;2022-12-07T09:05:57;95536.63;;;13.00;81.51
19590;BME280;12231;42.782;23.388;2022-12-07T09:08:28;95532.44;;;12.86;81.28
19590;BME280;12231;42.782;23.388;2022-12-07T09:10:56;95520.59;;;12.33;83.83
19590;BME280;12231;42.782;23.388;2022-12-07T09:13:21;95516.13;;;11.98;86.42
19590;BME280;12231;42.782;23.388;2022-12-07T09:15:46;95519.38;;;12.39;85.15
19590;BME280;12231;42.782;23.388;2022-12-07T09:18:12;95514.88;;;12.66;84.26
19590;BME280;12231;42.782;23.388;2022-12-07T09:20:37;95515.00;;;13.13;82.25
19590;BME280;12231;42.782;23.388;2022-12-07T09:23:05;95514.94;;;11.38;88.49
19590;BME280;12231;42.782;23.388;2022-12-07T09:25:31;95513.72;;;10.76;91.49
19590;BME280;12231;42.782;23.388;2022-12-07T09:27:57;95513.19;;;11.12;90.80
19590;BME280;12231;42.782;23.388;2022-12-07T09:30:22;95502.69;;;11.54;89.78
19590;BME280;12231;42.782;23.388;2022-12-07T09:32:48;95500.75;;;11.84;88.78
19590;BME280;12231;42.782;23.388;2022-12-07T09:35:13;95502.38;;;11.85;87.10
19590;BME280;12231;42.782;23.388;2022-12-07T09:37:39;95501.97;;;11.52;89.68
19590;BME280;12231;42.782;23.388;2022-12-07T09:40:05;95499.34;;;11.13;90.86
19590;BME280;12231;42.782;23.388;2022-12-07T09:42:39;95494.63;;;11.19;91.26
19590;BME280;12231;42.782;23.388;2022-12-07T09:45:30;95496.78;;;11.66;89.78
19590;BME280;12231;42.782;23.388;2022-12-07T09:47:58;95491.28;;;11.31;90.69
19590;BME280;12231;42.782;23.388;2022-12-07T09:50:28;95494.72;;;11.71;89.84
19590;BME280;12231;42.782;23.388;2022-12-07T09:52:55;95490.53;;;11.95;88.83
19590;BME280;12231;42.782;23.388;2022-12-07T09:55:28;95476.44;;;11.99;88.17
19590;BME280;12231;42.782;23.388;2022-12-07T09:57:54;95476.25;;;11.77;88.75
19590;BME280;12231;42.782;23.388;2022-12-07T10:00:22;95467.22;;;11.31;90.56
19590;BME280;12231;42.782;23.388;2022-12-07T10:02:55;95479.91;;;10.80;93.58
19590;BME280;12231;42.782;23.388;2022-12-07T10:05:30;95477.97;;;10.43;95.18
19590;BME280;12231;42.782;23.388;2022-12-07T10:07:56;95475.09;;;10.20;96.31
19590;BME280;12231;42.782;23.388;2022-12-07T10:10:29;95465.63;;;10.48;96.46
19590;BME280;12231;42.782;23.388;2022-12-07T10:13:00;95461.03;;;10.25;97.16
19590;BME280;12231;42.782;23.388;2022-12-07T10:15:59;95452.94;;;10.45;96.85
19590;BME280;12231;42.782;23.388;2022-12-07T10:21:18;95454.03;;;10.41;97.41
19590;BME280;12231;42.782;23.388;2022-12-07T10:24:13;95439.41;;;10.00;99.11
19590;BME280;12231;42.782;23.388;2022-12-07T10:26:51;95436.72;;;9.87;99.73
19590;BME280;12231;42.782;23.388;2022-12-07T10:29:46;95437.91;;;9.67;100.00
19590;BME280;12231;42.782;23.388;2022-12-07T10:34:41;95423.03;;;10.01;100.00
19590;BME280;12231;42.782;23.388;2022-12-07T10:39:53;95410.69;;;9.77;100.00
19590;BME280;12231;42.782;23.388;2022-12-07T10:42:20;95413.13;;;9.81;100.00
19590;BME280;12231;42.782;23.388;2022-12-07T10:44:46;95412.84;;;10.27;100.00
19590;BME280;12231;42.782;23.388;2022-12-07T10:50:35;95414.09;;;11.01;97.47
19590;BME280;12231;42.782;23.388;2022-12-07T11:07:01;95396.91;;;12.53;88.98
19590;BME280;12231;42.782;23.388;2022-12-07T11:12:26;95381.72;;;12.48;89.75
19590;BME280;12231;42.782;23.388;2022-12-07T11:17:36;95368.63;;;12.38;88.67
19590;BME280;12231;42.782;23.388;2022-12-07T11:26:07;95359.69;;;12.19;91.19
19590;BME280;12231;42.782;23.388;2022-12-07T11:36:48;95330.31;;;10.94;99.47
19590;BME280;12231;42.782;23.388;2022-12-07T11:39:20;95337.25;;;11.71;96.51
19590;BME280;12231;42.782;23.388;2022-12-07T11:41:52;95332.38;;;12.27;92.88
19590;BME280;12231;42.782;23.388;2022-12-07T11:44:29;95336.88;;;12.13;92.31
19590;BME280;12231;42.782;23.388;2022-12-07T11:47:07;95332.94;;;12.91;90.32
19590;BME280;12231;42.782;23.388;2022-12-07T11:52:04;95328.31;;;13.52;86.27
19590;BME280;12231;42.782;23.388;2022-12-07T11:54:35;95326.78;;;13.61;86.12
19590;BME280;12231;42.782;23.388;2022-12-07T11:57:12;95322.63;;;13.25;87.01
19590;BME280;12231;42.782;23.388;2022-12-07T11:59:48;95321.66;;;13.26;87.30
19590;BME280;12231;42.782;23.388;2022-12-07T12:02:20;95318.72;;;13.31;87.14
19590;BME280;12231;42.782;23.388;2022-12-07T12:07:23;95306.81;;;12.83;89.63
19590;BME280;12231;42.782;23.388;2022-12-07T12:09:51;95302.56;;;13.16;88.34
19590;BME280;12231;42.782;23.388;2022-12-07T12:21:23;95293.31;;;13.25;88.53
19590;BME280;12231;42.782;23.388;2022-12-07T12:23:57;95290.38;;;13.51;86.85
19590;BME280;12231;42.782;23.388;2022-12-07T12:26:27;95286.28;;;13.71;85.89
19590;BME280;12231;42.782;23.388;2022-12-07T12:28:54;95278.19;;;13.75;86.13
19590;BME280;12231;42.782;23.388;2022-12-07T12:33:52;95265.94;;;13.89;86.18
19590;BME280;12231;42.782;23.388;2022-12-07T12:36:42;95272.41;;;13.72;86.35
19590;BME280;12231;42.782;23.388;2022-12-07T12:39:15;95275.44;;;13.44;86.55
19590;BME280;12231;42.782;23.388;2022-12-07T12:52:00;95265.25;;;13.08;89.57
19590;BME280;12231;42.782;23.388;2022-12-07T12:54:29;95264.94;;;13.12;89.08
19590;BME280;12231;42.782;23.388;2022-12-07T12:57:36;95265.25;;;13.08;89.31
19590;BME280;12231;42.782;23.388;2022-12-07T13:00:21;95261.06;;;13.29;89.23
19590;BME280;12231;42.782;23.388;2022-12-07T13:02:49;95257.44;;;13.42;88.76
19590;BME280;12231;42.782;23.388;2022-12-07T13:05:19;95259.19;;;13.31;88.25
19590;BME280;12231;42.782;23.388;2022-12-07T13:20:54;95252.59;;;13.71;87.58
19590;BME280;12231;42.782;23.388;2022-12-07T13:23:33;95249.81;;;13.74;87.03
19590;BME280;12231;42.782;23.388;2022-12-07T13:26:20;95247.66;;;13.79;86.57
19590;BME280;12231;42.782;23.388;2022-12-07T13:34:05;95248.38;;;13.37;87.74
19590;BME280;12231;42.782;23.388;2022-12-07T13:36:38;95242.03;;;13.19;88.75
19590;BME280;12231;42.782;23.388;2022-12-07T13:39:24;95240.53;;;12.93;90.47
19590;BME280;12231;42.782;23.388;2022-12-07T13:42:09;95242.44;;;13.02;90.30
19590;BME280;12231;42.782;23.388;2022-12-07T13:44:40;95241.66;;;13.23;89.59
19590;BME280;12231;42.782;23.388;2022-12-07T13:47:10;95242.38;;;13.25;88.72
19590;BME280;12231;42.782;23.388;2022-12-07T13:49:50;95254.25;;;13.28;89.19
19590;BME280;12231;42.782;23.388;2022-12-07T13:54:58;95250.38;;;13.44;88.60
19590;BME280;12231;42.782;23.388;2022-12-07T13:57:27;95247.50;;;13.14;89.99
19590;BME280;12231;42.782;23.388;2022-12-07T13:59:53;95254.16;;;12.95;91.07
19590;BME280;12231;42.782;23.388;2022-12-07T14:02:26;95246.25;;;12.85;91.83
19590;BME280;12231;42.782;23.388;2022-12-07T14:04:52;95242.03;;;12.95;91.89
19590;BME280;12231;42.782;23.388;2022-12-07T14:07:27;95242.56;;;13.11;90.59
19590;BME280;12231;42.782;23.388;2022-12-07T14:10:05;95236.84;;;13.30;90.36
19590;BME280;12231;42.782;23.388;2022-12-07T14:12:32;95242.25;;;13.38;89.64
19590;BME280;12231;42.782;23.388;2022-12-07T14:15:02;95245.91;;;13.35;89.53
19590;BME280;12231;42.782;23.388;2022-12-07T14:17:27;95242.25;;;13.38;88.92
19590;BME280;12231;42.782;23.388;2022-12-07T14:19:57;95237.44;;;13.33;89.41
19590;BME280;12231;42.782;23.388;2022-12-07T14:22:36;95241.06;;;13.31;89.33
19590;BME280;12231;42.782;23.388;2022-12-07T14:27:33;95242.94;;;13.18;89.63
19590;BME280;12231;42.782;23.388;2022-12-07T14:30:02;95248.69;;;13.10;90.04
19590;BME280;12231;42.782;23.388;2022-12-07T14:32:28;95251.56;;;12.95;90.63
19590;BME280;12231;42.782;23.388;2022-12-07T14:34:55;95249.06;;;12.82;90.94
19590;BME280;12231;42.782;23.388;2022-12-07T14:37:20;95240.06;;;12.64;91.58
19590;BME280;12231;42.782;23.388;2022-12-07T14:39:46;95238.94;;;12.44;92.95
19590;BME280;12231;42.782;23.388;2022-12-07T14:42:11;95248.75;;;12.28;93.24
19590;BME280;12231;42.782;23.388;2022-12-07T14:44:36;95251.84;;;11.97;94.90
19590;BME280;12231;42.782;23.388;2022-12-07T14:47:02;95249.38;;;11.96;95.44
19590;BME280;12231;42.782;23.388;2022-12-07T14:49:27;95255.72;;;11.92;95.04
19590;BME280;12231;42.782;23.388;2022-12-07T14:51:53;95262.00;;;11.88;95.09
19590;BME280;12231;42.782;23.388;2022-12-07T14:54:20;95269.72;;;11.64;96.50
19590;BME280;12231;42.782;23.388;2022-12-07T14:56:46;95260.91;;;11.54;96.95
19590;BME280;12231;42.782;23.388;2022-12-07T14:59:16;95275.47;;;11.43;97.56
19590;BME280;12231;42.782;23.388;2022-12-07T15:01:42;95265.06;;;11.32;97.62